sensor_id;sensor_type;location;lat;lon;timestamp;P1;durP1;ratioP1;P2;durP2;ratioP2
69542;SDS011;56762;49.494;11.768;2023-06-14T00:02:07;3.30;;;1.88;;
69542;SDS011;56762;49.494;11.768;2023-06-14T00:04:35;4.85;;;2.10;;
69542;SDS011;56762;49.494;11.768;2023-06-14T00:07:05;5.00;;;2.28;;
69542;SDS011;56762;49.494;11.768;2023-06-14T00:09:34;3.40;;;1.80;;
69542;SDS011;56762;49.494;11.768;2023-06-14T00:12:03;3.95;;;2.10;;
69542;SDS011;56762;49.494;11.768;2023-06-14T00:14:33;4.28;;;2.05;;
69542;SDS011;56762;49.494;11.768;2023-06-14T00:17:01;5.63;;;2.22;;
69542;SDS011;56762;49.494;11.768;2023-06-14T00:19:31;7.45;;;2.10;;
69542;SDS011;56762;49.494;11.768;2023-06-14T00:22:00;4.83;;;1.83;;
69542;SDS011;56762;49.494;11.768;2023-06-14T00:24:30;4.47;;;2.00;;
69542;SDS011;56762;49.494;11.768;2023-06-14T00:26:58;5.68;;;2.45;;
69542;SDS011;56762;49.494;11.768;2023-06-14T00:29:26;3.63;;;2.15;;
69542;SDS011;56762;49.494;11.768;2023-06-14T00:31:54;4.25;;;2.10;;
69542;SDS011;56762;49.494;11.768;2023-06-14T00:34:22;4.80;;;1.87;;
69542;SDS011;56762;49.494;11.768;2023-06-14T00:36:50;4.72;;;2.45;;
69542;SDS011;56762;49.494;11.768;2023-06-14T00:39:18;3.90;;;1.88;;
69542;SDS011;56762;49.494;11.768;2023-06-14T00:41:47;4.45;;;2.03;;
69542;SDS011;56762;49.494;11.768;2023-06-14T00:44:15;3.60;;;2.00;;
69542;SDS011;56762;49.494;11.768;2023-06-14T00:46:45;3.10;;;1.87;;
69542;SDS011;56762;49.494;11.768;2023-06-14T00:49:13;5.20;;;2.33;;
69542;SDS011;56762;49.494;11.768;2023-06-14T00:51:42;5.28;;;2.20;;
69542;SDS011;56762;49.494;11.768;2023-06-14T00:54:11;5.53;;;2.10;;
69542;SDS011;56762;49.494;11.768;2023-06-14T00:56:39;4.57;;;2.20;;
69542;SDS011;56762;49.494;11.768;2023-06-14T00:59:09;3.87;;;1.97;;
69542;SDS011;56762;49.494;11.768;2023-06-14T01:01:38;4.05;;;2.33;;
69542;SDS011;56762;49.494;11.768;2023-06-14T01:04:06;4.13;;;1.92;;
69542;SDS011;56762;49.494;11.768;2023-06-14T01:06:36;4.53;;;2.47;;
69542;SDS011;56762;49.494;11.768;2023-06-14T01:09:15;3.38;;;2.03;;
69542;SDS011;56762;49.494;11.768;2023-06-14T01:11:53;4.90;;;2.20;;
69542;SDS011;56762;49.494;11.768;2023-06-14T01:14:30;4.45;;;2.00;;
69542;SDS011;56762;49.494;11.768;2023-06-14T01:17:00;4.78;;;2.53;;
69542;SDS011;56762;49.494;11.768;2023-06-14T01:19:29;5.00;;;2.45;;
69542;SDS011;56762;49.494;11.768;2023-06-14T01:21:58;4.25;;;2.38;;
69542;SDS011;56762;49.494;11.768;2023-06-14T01:24:29;4.03;;;2.20;;
69542;SDS011;56762;49.494;11.768;2023-06-14T01:27:01;4.10;;;2.17;;
69542;SDS011;56762;49.494;11.768;2023-06-14T01:29:30;4.47;;;2.65;;
69542;SDS011;56762;49.494;11.768;2023-06-14T01:32:02;4.40;;;2.53;;
69542;SDS011;56762;49.494;11.768;2023-06-14T01:34:31;6.05;;;2.55;;
69542;SDS011;56762;49.494;11.768;2023-06-14T01:37:01;3.70;;;2.13;;
69542;SDS011;56762;49.494;11.768;2023-06-14T01:39:31;4.80;;;2.22;;
69542;SDS011;56762;49.494;11.768;2023-06-14T01:42:00;3.05;;;1.90;;
69542;SDS011;56762;49.494;11.768;2023-06-14T01:44:29;4.18;;;2.08;;
69542;SDS011;56762;49.494;11.768;2023-06-14T01:47:00;3.72;;;2.25;;
69542;SDS011;56762;49.494;11.768;2023-06-14T01:49:29;5.07;;;2.20;;
69542;SDS011;56762;49.494;11.768;2023-06-14T01:52:01;7.10;;;2.70;;
69542;SDS011;56762;49.494;11.768;2023-06-14T01:54:29;3.80;;;2.20;;
69542;SDS011;56762;49.494;11.768;2023-06-14T01:56:58;3.90;;;2.17;;
69542;SDS011;56762;49.494;11.768;2023-06-14T01:59:27;5.13;;;2.53;;
69542;SDS011;56762;49.494;11.768;2023-06-14T02:01:55;6.00;;;2.67;;
69542;SDS011;56762;49.494;11.768;2023-06-14T02:04:23;5.40;;;2.53;;
69542;SDS011;56762;49.494;11.768;2023-06-14T02:06:51;4.65;;;2.35;;
69542;SDS011;56762;49.494;11.768;2023-06-14T02:09:19;9.00;;;3.28;;
69542;SDS011;56762;49.494;11.768;2023-06-14T02:11:47;5.10;;;2.75;;
69542;SDS011;56762;49.494;11.768;2023-06-14T02:14:17;4.10;;;2.13;;
69542;SDS011;56762;49.494;11.768;2023-06-14T02:16:45;5.43;;;2.80;;
69542;SDS011;56762;49.494;11.768;2023-06-14T02:19:15;3.95;;;2.35;;
69542;SDS011;56762;49.494;11.768;2023-06-14T02:21:43;7.68;;;2.85;;
69542;SDS011;56762;49.494;11.768;2023-06-14T02:24:11;3.85;;;2.33;;
69542;SDS011;56762;49.494;11.768;2023-06-14T02:26:39;4.10;;;2.40;;
69542;SDS011;56762;49.494;11.768;2023-06-14T02:29:08;4.57;;;2.40;;
69542;SDS011;56762;49.494;11.768;2023-06-14T02:31:40;4.22;;;2.42;;
69542;SDS011;56762;49.494;11.768;2023-06-14T02:34:08;4.20;;;2.58;;
69542;SDS011;56762;49.494;11.768;2023-06-14T02:36:36;4.60;;;2.50;;
69542;SDS011;56762;49.494;11.768;2023-06-14T02:39:08;6.20;;;3.00;;
69542;SDS011;56762;49.494;11.768;2023-06-14T02:41:37;4.55;;;2.58;;
69542;SDS011;56762;49.494;11.768;2023-06-14T02:44:05;4.03;;;2.50;;
69542;SDS011;56762;49.494;11.768;2023-06-14T02:46:33;4.40;;;2.58;;
69542;SDS011;56762;49.494;11.768;2023-06-14T02:49:04;6.45;;;2.60;;
69542;SDS011;56762;49.494;11.768;2023-06-14T02:51:32;3.97;;;2.50;;
69542;SDS011;56762;49.494;11.768;2023-06-14T02:53:59;3.90;;;2.38;;
69542;SDS011;56762;49.494;11.768;2023-06-14T02:56:28;4.40;;;3.00;;
69542;SDS011;56762;49.494;11.768;2023-06-14T02:58:56;5.18;;;2.47;;
69542;SDS011;56762;49.494;11.768;2023-06-14T03:01:25;3.78;;;2.35;;
69542;SDS011;56762;49.494;11.768;2023-06-14T03:04:00;4.40;;;2.60;;
69542;SDS011;56762;49.494;11.768;2023-06-14T03:06:31;5.30;;;2.97;;
69542;SDS011;56762;49.494;11.768;2023-06-14T03:08:59;4.90;;;2.55;;
69542;SDS011;56762;49.494;11.768;2023-06-14T03:11:31;5.00;;;2.50;;
69542;SDS011;56762;49.494;11.768;2023-06-14T03:13:59;5.28;;;2.70;;
69542;SDS011;56762;49.494;11.768;2023-06-14T03:16:29;5.77;;;2.67;;
69542;SDS011;56762;49.494;11.768;2023-06-14T03:18:58;6.43;;;2.72;;
69542;SDS011;56762;49.494;11.768;2023-06-14T03:21:26;3.70;;;2.60;;
69542;SDS011;56762;49.494;11.768;2023-06-14T03:23:55;5.28;;;2.63;;
69542;SDS011;56762;49.494;11.768;2023-06-14T03:26:23;4.55;;;2.53;;
69542;SDS011;56762;49.494;11.768;2023-06-14T03:28:51;4.03;;;2.30;;
69542;SDS011;56762;49.494;11.768;2023-06-14T03:31:19;4.40;;;2.58;;
69542;SDS011;56762;49.494;11.768;2023-06-14T03:33:47;4.43;;;2.70;;
69542;SDS011;56762;49.494;11.768;2023-06-14T03:36:15;4.97;;;2.80;;
69542;SDS011;56762;49.494;11.768;2023-06-14T03:38:44;4.20;;;2.83;;
69542;SDS011;56762;49.494;11.768;2023-06-14T03:41:13;6.20;;;2.90;;
69542;SDS011;56762;49.494;11.768;2023-06-14T03:43:41;4.72;;;3.00;;
69542;SDS011;56762;49.494;11.768;2023-06-14T03:46:09;4.22;;;2.65;;
69542;SDS011;56762;49.494;11.768;2023-06-14T03:48:37;5.13;;;2.70;;
69542;SDS011;56762;49.494;11.768;2023-06-14T03:51:06;7.97;;;4.03;;
69542;SDS011;56762;49.494;11.768;2023-06-14T03:53:33;6.40;;;3.13;;
69542;SDS011;56762;49.494;11.768;2023-06-14T03:56:09;4.32;;;2.83;;
69542;SDS011;56762;49.494;11.768;2023-06-14T03:58:39;5.63;;;3.35;;
69542;SDS011;56762;49.494;11.768;2023-06-14T04:01:08;5.60;;;2.90;;
69542;SDS011;56762;49.494;11.768;2023-06-14T04:03:38;5.72;;;2.90;;
69542;SDS011;56762;49.494;11.768;2023-06-14T04:06:07;5.80;;;3.10;;
69542;SDS011;56762;49.494;11.768;2023-06-14T04:08:35;4.95;;;3.20;;
69542;SDS011;56762;49.494;11.768;2023-06-14T04:11:06;5.18;;;3.10;;
69542;SDS011;56762;49.494;11.768;2023-06-14T04:13:35;5.55;;;3.08;;
69542;SDS011;56762;49.494;11.768;2023-06-14T04:16:05;5.82;;;2.90;;
69542;SDS011;56762;49.494;11.768;2023-06-14T04:18:34;5.27;;;3.43;;
69542;SDS011;56762;49.494;11.768;2023-06-14T04:21:02;4.85;;;2.95;;
69542;SDS011;56762;49.494;11.768;2023-06-14T04:23:30;4.70;;;2.67;;
69542;SDS011;56762;49.494;11.768;2023-06-14T04:25:59;4.60;;;3.03;;
69542;SDS011;56762;49.494;11.768;2023-06-14T04:28:29;4.88;;;2.78;;
69542;SDS011;56762;49.494;11.768;2023-06-14T04:30:58;4.57;;;3.20;;
69542;SDS011;56762;49.494;11.768;2023-06-14T04:33:29;6.05;;;3.50;;
69542;SDS011;56762;49.494;11.768;2023-06-14T04:35:59;7.28;;;3.65;;
69542;SDS011;56762;49.494;11.768;2023-06-14T04:38:27;5.28;;;3.05;;
69542;SDS011;56762;49.494;11.768;2023-06-14T04:40:54;3.97;;;2.55;;
69542;SDS011;56762;49.494;11.768;2023-06-14T04:43:23;7.27;;;3.30;;
69542;SDS011;56762;49.494;11.768;2023-06-14T04:45:52;5.47;;;3.60;;
69542;SDS011;56762;49.494;11.768;2023-06-14T04:48:21;5.20;;;3.28;;
69542;SDS011;56762;49.494;11.768;2023-06-14T04:50:50;5.30;;;3.30;;
69542;SDS011;56762;49.494;11.768;2023-06-14T04:53:20;5.05;;;3.58;;
69542;SDS011;56762;49.494;11.768;2023-06-14T04:55:49;6.67;;;3.20;;
69542;SDS011;56762;49.494;11.768;2023-06-14T04:58:19;4.93;;;3.03;;
69542;SDS011;56762;49.494;11.768;2023-06-14T05:00:47;4.20;;;3.20;;
69542;SDS011;56762;49.494;11.768;2023-06-14T05:03:14;5.95;;;3.42;;
69542;SDS011;56762;49.494;11.768;2023-06-14T05:05:45;5.00;;;3.55;;
69542;SDS011;56762;49.494;11.768;2023-06-14T05:08:14;8.07;;;3.20;;
69542;SDS011;56762;49.494;11.768;2023-06-14T05:10:42;6.32;;;3.13;;
69542;SDS011;56762;49.494;11.768;2023-06-14T05:13:10;5.65;;;3.78;;
69542;SDS011;56762;49.494;11.768;2023-06-14T05:15:38;4.53;;;2.92;;
69542;SDS011;56762;49.494;11.768;2023-06-14T05:18:06;5.22;;;3.28;;
69542;SDS011;56762;49.494;11.768;2023-06-14T05:20:36;6.43;;;3.67;;
69542;SDS011;56762;49.494;11.768;2023-06-14T05:23:04;6.80;;;3.28;;
69542;SDS011;56762;49.494;11.768;2023-06-14T05:25:33;5.85;;;3.30;;
69542;SDS011;56762;49.494;11.768;2023-06-14T05:28:01;7.82;;;3.75;;
69542;SDS011;56762;49.494;11.768;2023-06-14T05:30:30;5.60;;;3.60;;
69542;SDS011;56762;49.494;11.768;2023-06-14T05:32:59;5.33;;;3.20;;
69542;SDS011;56762;49.494;11.768;2023-06-14T05:35:27;7.18;;;3.25;;
69542;SDS011;56762;49.494;11.768;2023-06-14T05:37:56;5.13;;;3.20;;
69542;SDS011;56762;49.494;11.768;2023-06-14T05:40:23;6.38;;;3.25;;
69542;SDS011;56762;49.494;11.768;2023-06-14T05:42:54;4.40;;;2.95;;
69542;SDS011;56762;49.494;11.768;2023-06-14T05:45:23;4.27;;;2.77;;
69542;SDS011;56762;49.494;11.768;2023-06-14T05:47:50;5.10;;;3.08;;
69542;SDS011;56762;49.494;11.768;2023-06-14T05:50:20;4.60;;;3.33;;
69542;SDS011;56762;49.494;11.768;2023-06-14T05:52:49;3.85;;;2.88;;
69542;SDS011;56762;49.494;11.768;2023-06-14T05:55:17;5.78;;;3.30;;
69542;SDS011;56762;49.494;11.768;2023-06-14T05:57:46;6.13;;;3.20;;
69542;SDS011;56762;49.494;11.768;2023-06-14T06:00:16;4.88;;;2.80;;
69542;SDS011;56762;49.494;11.768;2023-06-14T06:02:46;6.10;;;2.90;;
69542;SDS011;56762;49.494;11.768;2023-06-14T06:05:14;4.07;;;2.92;;
69542;SDS011;56762;49.494;11.768;2023-06-14T06:07:44;4.22;;;3.08;;
69542;SDS011;56762;49.494;11.768;2023-06-14T06:10:12;4.77;;;3.40;;
69542;SDS011;56762;49.494;11.768;2023-06-14T06:12:41;4.25;;;2.75;;
69542;SDS011;56762;49.494;11.768;2023-06-14T06:15:09;5.45;;;2.85;;
69542;SDS011;56762;49.494;11.768;2023-06-14T06:17:40;5.78;;;3.00;;
69542;SDS011;56762;49.494;11.768;2023-06-14T06:20:21;5.97;;;2.70;;
69542;SDS011;56762;49.494;11.768;2023-06-14T06:22:55;4.63;;;2.90;;
69542;SDS011;56762;49.494;11.768;2023-06-14T06:25:23;7.40;;;3.45;;
69542;SDS011;56762;49.494;11.768;2023-06-14T06:27:53;6.00;;;3.15;;
69542;SDS011;56762;49.494;11.768;2023-06-14T06:30:22;6.13;;;3.03;;
69542;SDS011;56762;49.494;11.768;2023-06-14T06:32:52;5.97;;;2.80;;
69542;SDS011;56762;49.494;11.768;2023-06-14T06:35:22;6.80;;;3.03;;
69542;SDS011;56762;49.494;11.768;2023-06-14T06:37:50;7.38;;;2.80;;
69542;SDS011;56762;49.494;11.768;2023-06-14T06:40:18;4.80;;;2.88;;
69542;SDS011;56762;49.494;11.768;2023-06-14T06:42:46;4.55;;;2.97;;
69542;SDS011;56762;49.494;11.768;2023-06-14T06:45:14;4.75;;;2.47;;
69542;SDS011;56762;49.494;11.768;2023-06-14T06:47:43;6.10;;;2.93;;
69542;SDS011;56762;49.494;11.768;2023-06-14T06:50:12;6.53;;;3.00;;
69542;SDS011;56762;49.494;11.768;2023-06-14T06:52:40;5.20;;;2.53;;
69542;SDS011;56762;49.494;11.768;2023-06-14T06:55:09;4.80;;;2.33;;
69542;SDS011;56762;49.494;11.768;2023-06-14T06:57:38;5.13;;;2.47;;
69542;SDS011;56762;49.494;11.768;2023-06-14T07:00:06;5.17;;;2.67;;
69542;SDS011;56762;49.494;11.768;2023-06-14T07:02:36;5.28;;;2.78;;
69542;SDS011;56762;49.494;11.768;2023-06-14T07:05:04;4.22;;;2.13;;
69542;SDS011;56762;49.494;11.768;2023-06-14T07:07:33;4.25;;;2.63;;
69542;SDS011;56762;49.494;11.768;2023-06-14T07:10:01;4.47;;;2.70;;
69542;SDS011;56762;49.494;11.768;2023-06-14T07:12:32;4.10;;;2.63;;
69542;SDS011;56762;49.494;11.768;2023-06-14T07:15:03;4.68;;;2.38;;
69542;SDS011;56762;49.494;11.768;2023-06-14T07:17:32;4.65;;;3.00;;
69542;SDS011;56762;49.494;11.768;2023-06-14T07:20:01;5.25;;;2.60;;
69542;SDS011;56762;49.494;11.768;2023-06-14T07:22:40;5.07;;;2.60;;
69542;SDS011;56762;49.494;11.768;2023-06-14T07:25:08;8.43;;;3.80;;
69542;SDS011;56762;49.494;11.768;2023-06-14T07:27:39;5.10;;;3.30;;
69542;SDS011;56762;49.494;11.768;2023-06-14T07:30:08;4.65;;;2.75;;
69542;SDS011;56762;49.494;11.768;2023-06-14T07:32:36;6.80;;;2.83;;
69542;SDS011;56762;49.494;11.768;2023-06-14T07:35:06;5.43;;;2.67;;
69542;SDS011;56762;49.494;11.768;2023-06-14T07:37:34;6.73;;;3.03;;
69542;SDS011;56762;49.494;11.768;2023-06-14T07:40:04;4.15;;;2.40;;
69542;SDS011;56762;49.494;11.768;2023-06-14T07:42:34;5.30;;;2.63;;
69542;SDS011;56762;49.494;11.768;2023-06-14T07:45:03;4.28;;;2.30;;
69542;SDS011;56762;49.494;11.768;2023-06-14T07:47:31;5.38;;;2.83;;
69542;SDS011;56762;49.494;11.768;2023-06-14T07:50:00;4.83;;;2.47;;
69542;SDS011;56762;49.494;11.768;2023-06-14T07:52:27;6.13;;;2.80;;
69542;SDS011;56762;49.494;11.768;2023-06-14T07:54:55;5.60;;;2.70;;
69542;SDS011;56762;49.494;11.768;2023-06-14T07:57:25;4.25;;;2.72;;
69542;SDS011;56762;49.494;11.768;2023-06-14T07:59:54;3.55;;;2.40;;
69542;SDS011;56762;49.494;11.768;2023-06-14T08:02:25;6.03;;;2.47;;
69542;SDS011;56762;49.494;11.768;2023-06-14T08:04:53;5.10;;;2.40;;
69542;SDS011;56762;49.494;11.768;2023-06-14T08:07:21;4.28;;;2.45;;
69542;SDS011;56762;49.494;11.768;2023-06-14T08:09:51;5.55;;;2.50;;
69542;SDS011;56762;49.494;11.768;2023-06-14T08:12:21;3.72;;;2.33;;
69542;SDS011;56762;49.494;11.768;2023-06-14T08:14:52;5.33;;;3.17;;
69542;SDS011;56762;49.494;11.768;2023-06-14T08:17:39;4.63;;;2.30;;
69542;SDS011;56762;49.494;11.768;2023-06-14T08:20:08;3.97;;;2.53;;
69542;SDS011;56762;49.494;11.768;2023-06-14T08:22:37;3.95;;;2.63;;
69542;SDS011;56762;49.494;11.768;2023-06-14T08:25:09;4.18;;;2.20;;
69542;SDS011;56762;49.494;11.768;2023-06-14T08:27:38;3.40;;;2.20;;
69542;SDS011;56762;49.494;11.768;2023-06-14T08:30:09;4.60;;;2.67;;
69542;SDS011;56762;49.494;11.768;2023-06-14T08:32:38;4.75;;;2.33;;
69542;SDS011;56762;49.494;11.768;2023-06-14T08:35:08;3.83;;;2.60;;
69542;SDS011;56762;49.494;11.768;2023-06-14T08:37:38;3.35;;;2.20;;
69542;SDS011;56762;49.494;11.768;2023-06-14T08:40:13;3.40;;;1.90;;
69542;SDS011;56762;49.494;11.768;2023-06-14T08:42:57;5.22;;;2.60;;
69542;SDS011;56762;49.494;11.768;2023-06-14T08:45:27;5.10;;;2.75;;
69542;SDS011;56762;49.494;11.768;2023-06-14T08:47:57;4.78;;;2.38;;
69542;SDS011;56762;49.494;11.768;2023-06-14T08:50:28;3.97;;;2.40;;
69542;SDS011;56762;49.494;11.768;2023-06-14T08:52:59;9.10;;;2.20;;
69542;SDS011;56762;49.494;11.768;2023-06-14T08:55:31;5.13;;;2.80;;
69542;SDS011;56762;49.494;11.768;2023-06-14T08:58:08;3.33;;;2.30;;
69542;SDS011;56762;49.494;11.768;2023-06-14T09:00:42;4.10;;;2.50;;
69542;SDS011;56762;49.494;11.768;2023-06-14T09:03:12;4.57;;;2.45;;
69542;SDS011;56762;49.494;11.768;2023-06-14T09:05:43;10.50;;;2.83;;
69542;SDS011;56762;49.494;11.768;2023-06-14T09:08:14;5.00;;;2.53;;
69542;SDS011;56762;49.494;11.768;2023-06-14T09:10:43;3.40;;;2.05;;
69542;SDS011;56762;49.494;11.768;2023-06-14T09:13:12;5.55;;;2.60;;
69542;SDS011;56762;49.494;11.768;2023-06-14T09:15:40;4.10;;;2.53;;
69542;SDS011;56762;49.494;11.768;2023-06-14T09:18:10;6.20;;;2.57;;
69542;SDS011;56762;49.494;11.768;2023-06-14T09:20:40;4.07;;;2.60;;
69542;SDS011;56762;49.494;11.768;2023-06-14T09:23:09;6.40;;;2.45;;
69542;SDS011;56762;49.494;11.768;2023-06-14T09:25:43;6.30;;;2.53;;
69542;SDS011;56762;49.494;11.768;2023-06-14T09:28:13;5.70;;;2.60;;
69542;SDS011;56762;49.494;11.768;2023-06-14T09:30:41;4.13;;;2.70;;
69542;SDS011;56762;49.494;11.768;2023-06-14T09:33:11;5.45;;;2.50;;
69542;SDS011;56762;49.494;11.768;2023-06-14T09:35:45;4.20;;;2.38;;
69542;SDS011;56762;49.494;11.768;2023-06-14T09:38:13;4.95;;;2.33;;
69542;SDS011;56762;49.494;11.768;2023-06-14T09:40:41;4.88;;;2.38;;
69542;SDS011;56762;49.494;11.768;2023-06-14T09:43:10;5.10;;;2.50;;
69542;SDS011;56762;49.494;11.768;2023-06-14T09:45:39;3.42;;;2.05;;
69542;SDS011;56762;49.494;11.768;2023-06-14T09:48:07;4.50;;;2.30;;
69542;SDS011;56762;49.494;11.768;2023-06-14T09:50:37;4.78;;;2.35;;
69542;SDS011;56762;49.494;11.768;2023-06-14T09:53:07;4.57;;;2.33;;
69542;SDS011;56762;49.494;11.768;2023-06-14T09:55:40;3.90;;;2.50;;
69542;SDS011;56762;49.494;11.768;2023-06-14T09:58:09;5.30;;;2.83;;
69542;SDS011;56762;49.494;11.768;2023-06-14T10:00:38;4.57;;;2.60;;
69542;SDS011;56762;49.494;11.768;2023-06-14T10:03:12;4.03;;;2.30;;
69542;SDS011;56762;49.494;11.768;2023-06-14T10:05:43;4.65;;;2.88;;
69542;SDS011;56762;49.494;11.768;2023-06-14T10:08:15;4.47;;;2.37;;
69542;SDS011;56762;49.494;11.768;2023-06-14T10:10:46;4.35;;;2.85;;
69542;SDS011;56762;49.494;11.768;2023-06-14T10:13:14;4.22;;;2.60;;
69542;SDS011;56762;49.494;11.768;2023-06-14T10:15:47;4.85;;;2.60;;
69542;SDS011;56762;49.494;11.768;2023-06-14T10:18:23;3.72;;;2.45;;
69542;SDS011;56762;49.494;11.768;2023-06-14T10:21:00;3.50;;;2.23;;
69542;SDS011;56762;49.494;11.768;2023-06-14T10:23:35;4.70;;;2.53;;
69542;SDS011;56762;49.494;11.768;2023-06-14T10:26:08;4.32;;;2.28;;
69542;SDS011;56762;49.494;11.768;2023-06-14T10:28:37;5.30;;;2.45;;
69542;SDS011;56762;49.494;11.768;2023-06-14T10:31:05;7.75;;;3.80;;
69542;SDS011;56762;49.494;11.768;2023-06-14T10:33:35;5.47;;;2.60;;
69542;SDS011;56762;49.494;11.768;2023-06-14T10:36:08;6.80;;;3.67;;
69542;SDS011;56762;49.494;11.768;2023-06-14T10:38:38;6.90;;;3.50;;
69542;SDS011;56762;49.494;11.768;2023-06-14T10:41:06;4.40;;;2.83;;
69542;SDS011;56762;49.494;11.768;2023-06-14T10:43:34;6.05;;;2.50;;
69542;SDS011;56762;49.494;11.768;2023-06-14T10:46:14;4.90;;;2.70;;
69542;SDS011;56762;49.494;11.768;2023-06-14T10:48:44;4.13;;;2.38;;
69542;SDS011;56762;49.494;11.768;2023-06-14T10:51:18;5.18;;;2.20;;
69542;SDS011;56762;49.494;11.768;2023-06-14T10:53:58;3.83;;;1.90;;
69542;SDS011;56762;49.494;11.768;2023-06-14T10:56:27;4.63;;;2.60;;
69542;SDS011;56762;49.494;11.768;2023-06-14T10:59:00;4.43;;;2.33;;
69542;SDS011;56762;49.494;11.768;2023-06-14T11:01:32;6.32;;;3.28;;
69542;SDS011;56762;49.494;11.768;2023-06-14T11:04:07;5.93;;;2.55;;
69542;SDS011;56762;49.494;11.768;2023-06-14T11:06:45;4.70;;;2.60;;
69542;SDS011;56762;49.494;11.768;2023-06-14T11:12:12;4.60;;;2.40;;
69542;SDS011;56762;49.494;11.768;2023-06-14T11:14:45;4.78;;;2.45;;
69542;SDS011;56762;49.494;11.768;2023-06-14T11:17:13;4.65;;;2.70;;
69542;SDS011;56762;49.494;11.768;2023-06-14T11:19:41;4.32;;;2.40;;
69542;SDS011;56762;49.494;11.768;2023-06-14T11:22:11;4.22;;;2.50;;
69542;SDS011;56762;49.494;11.768;2023-06-14T11:24:42;4.57;;;2.40;;
69542;SDS011;56762;49.494;11.768;2023-06-14T11:27:10;3.75;;;2.00;;
69542;SDS011;56762;49.494;11.768;2023-06-14T11:29:47;4.07;;;2.22;;
69542;SDS011;56762;49.494;11.768;2023-06-14T11:32:15;4.53;;;2.10;;
69542;SDS011;56762;49.494;11.768;2023-06-14T11:34:45;3.08;;;2.00;;
69542;SDS011;56762;49.494;11.768;2023-06-14T11:37:16;5.77;;;2.60;;
69542;SDS011;56762;49.494;11.768;2023-06-14T11:39:44;4.32;;;2.33;;
69542;SDS011;56762;49.494;11.768;2023-06-14T11:42:13;3.80;;;2.28;;
69542;SDS011;56762;49.494;11.768;2023-06-14T11:44:45;3.45;;;2.10;;
69542;SDS011;56762;49.494;11.768;2023-06-14T11:47:14;4.00;;;2.20;;
69542;SDS011;56762;49.494;11.768;2023-06-14T11:49:42;4.00;;;1.93;;
69542;SDS011;56762;49.494;11.768;2023-06-14T11:52:13;5.10;;;2.13;;
69542;SDS011;56762;49.494;11.768;2023-06-14T11:54:43;6.25;;;2.20;;
69542;SDS011;56762;49.494;11.768;2023-06-14T11:57:14;3.30;;;2.00;;
69542;SDS011;56762;49.494;11.768;2023-06-14T11:59:42;5.25;;;2.17;;
69542;SDS011;56762;49.494;11.768;2023-06-14T12:02:13;3.70;;;2.30;;
69542;SDS011;56762;49.494;11.768;2023-06-14T12:04:42;3.72;;;2.20;;
69542;SDS011;56762;49.494;11.768;2023-06-14T12:07:13;4.13;;;2.40;;
69542;SDS011;56762;49.494;11.768;2023-06-14T12:12:37;5.68;;;1.92;;
69542;SDS011;56762;49.494;11.768;2023-06-14T12:15:06;2.83;;;1.80;;
69542;SDS011;56762;49.494;11.768;2023-06-14T12:17:41;3.22;;;1.95;;
69542;SDS011;56762;49.494;11.768;2023-06-14T12:20:10;2.95;;;1.60;;
69542;SDS011;56762;49.494;11.768;2023-06-14T12:22:50;3.75;;;2.10;;
69542;SDS011;56762;49.494;11.768;2023-06-14T12:25:25;3.90;;;1.90;;
69542;SDS011;56762;49.494;11.768;2023-06-14T12:27:54;4.23;;;2.00;;
69542;SDS011;56762;49.494;11.768;2023-06-14T12:30:23;3.97;;;2.20;;
69542;SDS011;56762;49.494;11.768;2023-06-14T12:32:51;3.65;;;2.00;;
69542;SDS011;56762;49.494;11.768;2023-06-14T12:35:19;3.75;;;2.20;;
69542;SDS011;56762;49.494;11.768;2023-06-14T12:37:50;3.95;;;2.25;;
69542;SDS011;56762;49.494;11.768;2023-06-14T12:40:22;3.93;;;2.53;;
69542;SDS011;56762;49.494;11.768;2023-06-14T12:42:55;3.20;;;2.17;;
69542;SDS011;56762;49.494;11.768;2023-06-14T12:45:23;5.65;;;2.50;;
69542;SDS011;56762;49.494;11.768;2023-06-14T12:47:51;2.88;;;1.80;;
69542;SDS011;56762;49.494;11.768;2023-06-14T12:50:19;4.75;;;2.20;;
69542;SDS011;56762;49.494;11.768;2023-06-14T12:52:51;3.40;;;2.07;;
69542;SDS011;56762;49.494;11.768;2023-06-14T12:55:19;4.55;;;2.45;;
69542;SDS011;56762;49.494;11.768;2023-06-14T12:57:48;4.40;;;2.30;;
69542;SDS011;56762;49.494;11.768;2023-06-14T13:00:18;4.40;;;2.10;;
69542;SDS011;56762;49.494;11.768;2023-06-14T13:02:48;4.60;;;2.10;;
69542;SDS011;56762;49.494;11.768;2023-06-14T13:05:17;3.10;;;1.87;;
69542;SDS011;56762;49.494;11.768;2023-06-14T13:07:47;4.30;;;2.03;;
69542;SDS011;56762;49.494;11.768;2023-06-14T13:10:15;3.63;;;2.17;;
69542;SDS011;56762;49.494;11.768;2023-06-14T13:12:44;2.95;;;1.88;;
69542;SDS011;56762;49.494;11.768;2023-06-14T13:15:13;3.03;;;2.13;;
69542;SDS011;56762;49.494;11.768;2023-06-14T13:17:42;4.67;;;2.07;;
69542;SDS011;56762;49.494;11.768;2023-06-14T13:20:14;5.45;;;2.35;;
69542;SDS011;56762;49.494;11.768;2023-06-14T13:22:46;4.03;;;1.88;;
69542;SDS011;56762;49.494;11.768;2023-06-14T13:25:14;3.40;;;2.03;;
69542;SDS011;56762;49.494;11.768;2023-06-14T13:27:42;3.58;;;1.80;;
69542;SDS011;56762;49.494;11.768;2023-06-14T13:30:11;5.63;;;2.00;;
69542;SDS011;56762;49.494;11.768;2023-06-14T13:32:43;2.60;;;1.83;;
69542;SDS011;56762;49.494;11.768;2023-06-14T13:35:16;2.85;;;1.90;;
69542;SDS011;56762;49.494;11.768;2023-06-14T13:37:44;4.80;;;2.00;;
69542;SDS011;56762;49.494;11.768;2023-06-14T13:40:12;4.07;;;1.90;;
69542;SDS011;56762;49.494;11.768;2023-06-14T13:42:42;3.70;;;2.10;;
69542;SDS011;56762;49.494;11.768;2023-06-14T13:45:10;4.20;;;1.92;;
69542;SDS011;56762;49.494;11.768;2023-06-14T13:47:39;3.90;;;2.05;;
69542;SDS011;56762;49.494;11.768;2023-06-14T13:50:09;4.15;;;1.90;;
69542;SDS011;56762;49.494;11.768;2023-06-14T13:52:38;3.67;;;2.10;;
69542;SDS011;56762;49.494;11.768;2023-06-14T13:55:06;3.63;;;1.90;;
69542;SDS011;56762;49.494;11.768;2023-06-14T13:57:35;3.60;;;1.98;;
69542;SDS011;56762;49.494;11.768;2023-06-14T14:00:04;2.63;;;1.70;;
69542;SDS011;56762;49.494;11.768;2023-06-14T14:02:35;3.08;;;1.95;;
69542;SDS011;56762;49.494;11.768;2023-06-14T14:05:04;3.17;;;1.75;;
69542;SDS011;56762;49.494;11.768;2023-06-14T14:07:34;4.63;;;2.10;;
69542;SDS011;56762;49.494;11.768;2023-06-14T14:10:02;3.58;;;1.80;;
69542;SDS011;56762;49.494;11.768;2023-06-14T14:12:31;4.63;;;1.70;;
69542;SDS011;56762;49.494;11.768;2023-06-14T14:14:59;3.45;;;1.60;;
69542;SDS011;56762;49.494;11.768;2023-06-14T14:17:27;2.75;;;1.67;;
69542;SDS011;56762;49.494;11.768;2023-06-14T14:19:55;3.43;;;1.90;;
69542;SDS011;56762;49.494;11.768;2023-06-14T14:22:23;4.75;;;1.92;;
69542;SDS011;56762;49.494;11.768;2023-06-14T14:24:53;3.10;;;1.83;;
69542;SDS011;56762;49.494;11.768;2023-06-14T14:27:21;2.70;;;1.73;;
69542;SDS011;56762;49.494;11.768;2023-06-14T14:29:49;2.53;;;1.70;;
69542;SDS011;56762;49.494;11.768;2023-06-14T14:32:18;3.20;;;1.77;;
69542;SDS011;56762;49.494;11.768;2023-06-14T14:34:48;3.97;;;2.10;;
69542;SDS011;56762;49.494;11.768;2023-06-14T14:37:17;3.55;;;1.80;;
69542;SDS011;56762;49.494;11.768;2023-06-14T14:39:45;4.35;;;2.35;;
69542;SDS011;56762;49.494;11.768;2023-06-14T14:42:14;3.38;;;2.13;;
69542;SDS011;56762;49.494;11.768;2023-06-14T14:44:42;3.00;;;1.77;;
69542;SDS011;56762;49.494;11.768;2023-06-14T14:47:10;2.38;;;1.67;;
69542;SDS011;56762;49.494;11.768;2023-06-14T14:49:38;4.38;;;1.95;;
69542;SDS011;56762;49.494;11.768;2023-06-14T14:52:07;3.08;;;1.70;;
69542;SDS011;56762;49.494;11.768;2023-06-14T14:54:49;6.03;;;1.70;;